Time;durP1;ratioP1;P1;durP2;ratioP2;P2;SDS_P1;SDS_P2;PMS_P1;PMS_P2;Temp;Humidity;BMP_temperature;BMP_pressure;BME280_temperature;BME280_humidity;BME280_pressure;Samples;Min_cycle;Max_cycle;Signal;HPM_P1;HPM_P2
2023/05/28 00:00:03;;;;;;;9.77;5.07;;;;;;;;;;6125077;23;20056;-82
2023/05/28 00:02:29;;;;;;;9.25;5.00;;;;;;;;;;6152622;23;20043;-83
2023/05/28 00:04:55;;;;;;;10.88;5.15;;;;;;;;;;6150985;23;20005;-82
2023/05/28 00:07:23;;;;;;;11.85;4.95;;;;;;;;;;6152502;23;20017;-83
2023/05/28 00:09:49;;;;;;;8.30;5.15;;;;;;;;;;6124732;23;20365;-83
2023/05/28 00:12:15;;;;;;;11.23;4.97;;;;;;;;;;6152182;23;20014;-83
2023/05/28 00:14:41;;;;;;;10.95;4.55;;;;;;;;;;6151124;23;20010;-82
2023/05/28 00:17:08;;;;;;;9.52;4.85;;;;;;;;;;6152247;23;20013;-83
2023/05/28 00:19:35;;;;;;;8.48;4.63;;;;;;;;;;6125175;23;20827;-82
2023/05/28 00:22:01;;;;;;;11.80;4.93;;;;;;;;;;6151506;23;20032;-82
2023/05/28 00:24:27;;;;;;;8.10;4.38;;;;;;;;;;6150114;23;20009;-82
2023/05/28 00:26:53;;;;;;;10.80;4.47;;;;;;;;;;6151158;23;20010;-82
2023/05/28 00:29:20;;;;;;;11.60;4.68;;;;;;;;;;6125429;23;20314;-82
2023/05/28 00:31:46;;;;;;;9.23;4.75;;;;;;;;;;6150970;23;20013;-82
2023/05/28 00:34:12;;;;;;;8.23;4.53;;;;;;;;;;6125647;23;20013;-82
2023/05/28 00:36:38;;;;;;;8.30;4.22;;;;;;;;;;6150520;23;20017;-82
2023/05/28 00:39:06;;;;;;;8.35;4.20;;;;;;;;;;6151291;23;20033;-82
2023/05/28 00:41:35;;;;;;;9.10;4.45;;;;;;;;;;6124058;23;20028;-83
2023/05/28 00:44:01;;;;;;;7.30;4.28;;;;;;;;;;6151680;23;20009;-82
2023/05/28 00:46:27;;;;;;;8.68;4.43;;;;;;;;;;6124455;23;20041;-82
2023/05/28 00:48:53;;;;;;;7.32;3.80;;;;;;;;;;6125549;23;20418;-82
2023/05/28 00:51:19;;;;;;;7.55;4.28;;;;;;;;;;6124612;23;20018;-82
2023/05/28 00:53:46;;;;;;;11.68;4.32;;;;;;;;;;6125224;23;20011;-82
2023/05/28 00:56:12;;;;;;;10.07;4.65;;;;;;;;;;6123985;23;20020;-82
2023/05/28 00:58:39;;;;;;;9.38;5.00;;;;;;;;;;6125272;23;20068;-82
2023/05/28 01:01:09;;;;;;;7.45;3.75;;;;;;;;;;6150444;23;20064;-82
2023/05/28 01:03:39;;;;;;;10.38;4.72;;;;;;;;;;6125503;23;20017;-82
2023/05/28 01:06:11;;;;;;;8.88;4.38;;;;;;;;;;6151839;23;20021;-82
2023/05/28 01:08:37;;;;;;;9.55;4.38;;;;;;;;;;6153382;23;20005;-83
2023/05/28 01:11:03;;;;;;;8.60;4.82;;;;;;;;;;6152879;23;20010;-83
2023/05/28 01:13:30;;;;;;;9.10;4.63;;;;;;;;;;6153503;23;20008;-83
2023/05/28 01:15:56;;;;;;;8.13;4.30;;;;;;;;;;6152278;23;20017;-82
2023/05/28 01:18:24;;;;;;;9.07;4.43;;;;;;;;;;6152766;23;20052;-82
2023/05/28 01:20:50;;;;;;;9.02;4.72;;;;;;;;;;6126961;23;20024;-83
2023/05/28 01:23:20;;;;;;;6.63;4.25;;;;;;;;;;6125665;23;20045;-83
2023/05/28 01:25:50;;;;;;;8.88;4.90;;;;;;;;;;6126854;23;20018;-82
2023/05/28 01:28:16;;;;;;;8.52;4.32;;;;;;;;;;6152155;23;20002;-82
2023/05/28 01:30:46;;;;;;;7.43;4.65;;;;;;;;;;6152772;23;20016;-83
2023/05/28 01:33:12;;;;;;;10.82;4.53;;;;;;;;;;6152277;23;20008;-83
2023/05/28 01:35:42;;;;;;;8.55;4.95;;;;;;;;;;6127075;23;20023;-83
2023/05/28 01:38:09;;;;;;;11.60;4.78;;;;;;;;;;6125756;23;20354;-83
2023/05/28 01:40:37;;;;;;;8.13;4.30;;;;;;;;;;6126716;23;20009;-83
2023/05/28 01:43:03;;;;;;;7.80;3.90;;;;;;;;;;6152188;23;20048;-82
2023/05/28 01:45:29;;;;;;;9.48;4.28;;;;;;;;;;6126799;23;20080;-83
2023/05/28 01:47:56;;;;;;;7.97;3.85;;;;;;;;;;6151499;23;20076;-83
2023/05/28 01:50:22;;;;;;;8.23;4.88;;;;;;;;;;6126802;23;20426;-82
2023/05/28 01:52:48;;;;;;;8.73;4.50;;;;;;;;;;6151711;23;20010;-82
2023/05/28 01:55:14;;;;;;;10.77;4.90;;;;;;;;;;6126461;23;20006;-82
2023/05/28 01:57:40;;;;;;;6.97;4.78;;;;;;;;;;6125837;23;20056;-83
2023/05/28 02:00:06;;;;;;;10.48;4.25;;;;;;;;;;6126542;23;20024;-83
2023/05/28 02:02:34;;;;;;;10.57;4.40;;;;;;;;;;6126094;23;20092;-82
2023/05/28 02:05:00;;;;;;;9.15;5.30;;;;;;;;;;6125854;23;20380;-82
2023/05/28 02:07:26;;;;;;;7.50;4.80;;;;;;;;;;6152914;23;20048;-82
2023/05/28 02:09:52;;;;;;;12.10;4.97;;;;;;;;;;6125888;23;20415;-82
2023/05/28 02:12:18;;;;;;;9.18;4.78;;;;;;;;;;6152483;23;20017;-82
2023/05/28 02:14:44;;;;;;;9.00;4.72;;;;;;;;;;6125880;23;20014;-82
2023/05/28 02:17:12;;;;;;;7.43;4.80;;;;;;;;;;6151705;23;20017;-82
2023/05/28 02:19:38;;;;;;;7.70;4.50;;;;;;;;;;6125376;23;20020;-83
2023/05/28 02:22:10;;;;;;;9.07;4.90;;;;;;;;;;6152663;23;20092;-83
2023/05/28 02:24:36;;;;;;;10.60;4.70;;;;;;;;;;6125527;23;20489;-82
2023/05/28 02:27:03;;;;;;;7.80;4.20;;;;;;;;;;6126519;23;20346;-82
2023/05/28 02:29:29;;;;;;;10.10;4.50;;;;;;;;;;6151587;23;20012;-82
2023/05/28 02:31:55;;;;;;;8.68;4.20;;;;;;;;;;6152690;23;20017;-82
2023/05/28 02:34:21;;;;;;;8.18;4.82;;;;;;;;;;6151667;23;20466;-82
2023/05/28 02:36:47;;;;;;;11.50;4.65;;;;;;;;;;6126002;23;20096;-82
2023/05/28 02:39:14;;;;;;;10.27;4.82;;;;;;;;;;6151306;23;20326;-82
2023/05/28 02:41:40;;;;;;;8.82;4.32;;;;;;;;;;6126095;23;20093;-82
2023/05/28 02:44:06;;;;;;;7.72;4.40;;;;;;;;;;6151153;23;20037;-81
2023/05/28 02:46:32;;;;;;;7.93;4.13;;;;;;;;;;6152719;23;20009;-82
2023/05/28 02:48:58;;;;;;;12.88;4.45;;;;;;;;;;6125885;23;20053;-82
2023/05/28 02:51:24;;;;;;;10.30;4.53;;;;;;;;;;6151893;23;20417;-82
2023/05/28 02:53:50;;;;;;;9.65;4.05;;;;;;;;;;6152046;23;20002;-83
2023/05/28 02:56:16;;;;;;;8.93;5.22;;;;;;;;;;6151804;23;20016;-82
2023/05/28 02:58:42;;;;;;;8.82;4.18;;;;;;;;;;6125966;23;20412;-83
2023/05/28 03:01:08;;;;;;;7.97;4.53;;;;;;;;;;6125727;23;20009;-82
2023/05/28 03:03:34;;;;;;;6.95;4.03;;;;;;;;;;6152519;23;20012;-82
2023/05/28 03:06:00;;;;;;;7.03;4.35;;;;;;;;;;6125263;23;20100;-82
2023/05/28 03:08:26;;;;;;;8.10;4.68;;;;;;;;;;6126097;23;20436;-82
2023/05/28 03:10:52;;;;;;;9.07;5.20;;;;;;;;;;6151766;23;20076;-82
2023/05/28 03:13:18;;;;;;;10.75;4.50;;;;;;;;;;6152215;23;20005;-82
2023/05/28 03:15:44;;;;;;;8.20;4.35;;;;;;;;;;6125282;23;20024;-82
2023/05/28 03:18:10;;;;;;;9.18;4.70;;;;;;;;;;6151860;23;20011;-82
2023/05/28 03:20:36;;;;;;;7.93;4.03;;;;;;;;;;6124741;23;20080;-82
2023/05/28 03:23:02;;;;;;;7.90;4.88;;;;;;;;;;6125156;23;20032;-82
2023/05/28 03:25:28;;;;;;;10.25;4.65;;;;;;;;;;6125669;23;20013;-82
2023/05/28 03:27:54;;;;;;;9.23;4.80;;;;;;;;;;6150900;23;20445;-82
2023/05/28 03:30:23;;;;;;;7.20;4.60;;;;;;;;;;6125662;23;20001;-82
2023/05/28 03:32:50;;;;;;;9.27;4.20;;;;;;;;;;6151199;23;20012;-82
2023/05/28 03:35:16;;;;;;;7.25;4.47;;;;;;;;;;6126207;23;20115;-82
2023/05/28 03:37:42;;;;;;;10.55;4.60;;;;;;;;;;6125187;23;20029;-82
2023/05/28 03:40:09;;;;;;;9.00;4.47;;;;;;;;;;6126210;23;20133;-83
2023/05/28 03:42:36;;;;;;;7.97;4.20;;;;;;;;;;6124806;23;20010;-82
2023/05/28 03:45:02;;;;;;;9.90;4.75;;;;;;;;;;6125991;23;20010;-82
2023/05/28 03:47:30;;;;;;;11.13;4.28;;;;;;;;;;6125141;23;20064;-82
2023/05/28 03:49:58;;;;;;;8.68;4.28;;;;;;;;;;6152207;23;20009;-82
2023/05/28 03:52:24;;;;;;;9.40;4.40;;;;;;;;;;6124360;23;20024;-82
2023/05/28 03:54:50;;;;;;;9.13;4.20;;;;;;;;;;6125667;23;20038;-83
2023/05/28 03:57:16;;;;;;;8.30;4.55;;;;;;;;;;6124313;23;20017;-82
2023/05/28 03:59:42;;;;;;;6.82;4.13;;;;;;;;;;6125572;23;20017;-82
2023/05/28 04:02:08;;;;;;;7.50;4.57;;;;;;;;;;6124490;23;20463;-83
2023/05/28 04:04:34;;;;;;;8.70;4.72;;;;;;;;;;6125252;23;20021;-82
2023/05/28 04:07:00;;;;;;;7.45;4.43;;;;;;;;;;6124381;23;20088;-82
2023/05/28 04:09:27;;;;;;;6.53;4.30;;;;;;;;;;6125158;23;20010;-83
2023/05/28 04:11:53;;;;;;;9.20;4.57;;;;;;;;;;6125009;23;20020;-82
2023/05/28 04:14:20;;;;;;;6.50;4.63;;;;;;;;;;6125726;23;20013;-82
2023/05/28 04:16:46;;;;;;;7.38;4.53;;;;;;;;;;6125345;23;20096;-82
2023/05/28 04:19:12;;;;;;;8.35;4.50;;;;;;;;;;6124719;23;20028;-82
2023/05/28 04:21:38;;;;;;;8.75;4.78;;;;;;;;;;6125010;23;20045;-82
2023/05/28 04:24:04;;;;;;;7.72;4.50;;;;;;;;;;6124473;23;20421;-82
2023/05/28 04:26:31;;;;;;;8.57;4.80;;;;;;;;;;6125194;23;20013;-82
2023/05/28 04:28:59;;;;;;;9.88;5.18;;;;;;;;;;6124914;23;20354;-82
2023/05/28 04:31:28;;;;;;;8.63;4.65;;;;;;;;;;6125188;23;20014;-82
2023/05/28 04:33:55;;;;;;;10.57;5.20;;;;;;;;;;6151206;23;20002;-82
2023/05/28 04:36:21;;;;;;;8.05;4.75;;;;;;;;;;6125454;23;20013;-82
2023/05/28 04:38:47;;;;;;;7.80;4.57;;;;;;;;;;6149965;23;20326;-82
2023/05/28 04:41:14;;;;;;;8.38;4.40;;;;;;;;;;6125365;23;20014;-82
2023/05/28 04:43:41;;;;;;;9.00;4.68;;;;;;;;;;6123852;23;20441;-82
2023/05/28 04:46:08;;;;;;;8.05;4.82;;;;;;;;;;6124143;23;20433;-82
2023/05/28 04:48:37;;;;;;;8.93;5.30;;;;;;;;;;6150351;23;20008;-82
2023/05/28 04:51:05;;;;;;;7.53;5.00;;;;;;;;;;6123945;23;20606;-82
2023/05/28 04:53:31;;;;;;;10.05;4.65;;;;;;;;;;6125404;23;20006;-82
2023/05/28 04:55:57;;;;;;;8.23;4.05;;;;;;;;;;6124512;23;20726;-82
2023/05/28 04:58:23;;;;;;;8.68;5.15;;;;;;;;;;6125641;23;20034;-82
2023/05/28 05:00:49;;;;;;;11.50;5.22;;;;;;;;;;6124624;23;20018;-82
2023/05/28 05:03:15;;;;;;;10.45;4.75;;;;;;;;;;6125104;23;20024;-82
2023/05/28 05:05:41;;;;;;;9.85;4.63;;;;;;;;;;6124484;23;20018;-82
2023/05/28 05:08:09;;;;;;;9.40;5.07;;;;;;;;;;6124241;23;20058;-85
2023/05/28 05:10:35;;;;;;;9.75;4.85;;;;;;;;;;6124781;23;20005;-83
2023/05/28 05:13:01;;;;;;;8.13;4.20;;;;;;;;;;6150988;23;20001;-84
2023/05/28 05:15:27;;;;;;;10.73;4.72;;;;;;;;;;6125000;23;20009;-85
2023/05/28 05:17:53;;;;;;;8.57;4.60;;;;;;;;;;6150342;23;20481;-84
2023/05/28 05:20:19;;;;;;;8.07;4.65;;;;;;;;;;6151117;23;20013;-84
2023/05/28 05:22:45;;;;;;;8.65;4.82;;;;;;;;;;6149557;23;20025;-84
2023/05/28 05:25:11;;;;;;;10.05;4.57;;;;;;;;;;6124788;23;20112;-83
2023/05/28 05:27:37;;;;;;;9.95;5.00;;;;;;;;;;6148924;23;20422;-84
2023/05/28 05:30:03;;;;;;;11.23;5.13;;;;;;;;;;6124632;23;20337;-83
2023/05/28 05:32:29;;;;;;;8.35;4.90;;;;;;;;;;6151219;23;20405;-82
2023/05/28 05:34:55;;;;;;;9.88;5.30;;;;;;;;;;6124705;23;20016;-82
2023/05/28 05:37:23;;;;;;;9.45;4.93;;;;;;;;;;6151458;23;20045;-82
2023/05/28 05:39:49;;;;;;;11.98;5.13;;;;;;;;;;6125329;23;20014;-82
2023/05/28 05:42:15;;;;;;;7.68;4.85;;;;;;;;;;6151543;23;20084;-83
2023/05/28 05:44:41;;;;;;;7.85;4.30;;;;;;;;;;6150462;23;20033;-83
2023/05/28 05:47:07;;;;;;;10.30;4.65;;;;;;;;;;6151313;23;20033;-83
2023/05/28 05:49:33;;;;;;;9.57;4.40;;;;;;;;;;6124735;23;20008;-83
2023/05/28 05:51:59;;;;;;;7.20;4.22;;;;;;;;;;6124746;23;20029;-83
2023/05/28 05:54:25;;;;;;;8.60;4.82;;;;;;;;;;6152646;23;20009;-82
2023/05/28 05:56:52;;;;;;;7.68;4.60;;;;;;;;;;6126601;23;20783;-83
2023/05/28 05:59:18;;;;;;;10.23;4.35;;;;;;;;;;6153079;23;20009;-82
2023/05/28 06:01:45;;;;;;;9.90;4.32;;;;;;;;;;6153024;23;20013;-83
2023/05/28 06:04:10;;;;;;;9.80;4.78;;;;;;;;;;6126522;23;20013;-82
2023/05/28 06:06:38;;;;;;;9.07;4.43;;;;;;;;;;6126003;23;20064;-82
2023/05/28 06:09:04;;;;;;;6.78;3.78;;;;;;;;;;6125829;23;20077;-83
2023/05/28 06:11:30;;;;;;;11.05;5.35;;;;;;;;;;6125917;23;20048;-82
2023/05/28 06:13:56;;;;;;;9.95;4.70;;;;;;;;;;6152211;23;20005;-83
2023/05/28 06:16:22;;;;;;;9.25;5.50;;;;;;;;;;6126303;23;20484;-83
2023/05/28 06:18:48;;;;;;;13.05;5.05;;;;;;;;;;6126388;23;20429;-82
2023/05/28 06:21:14;;;;;;;9.60;5.68;;;;;;;;;;6151878;23;20006;-82
2023/05/28 06:23:40;;;;;;;9.15;4.97;;;;;;;;;;6125792;23;20047;-83
2023/05/28 06:26:06;;;;;;;10.60;5.20;;;;;;;;;;6152712;23;20017;-84
2023/05/28 06:28:32;;;;;;;8.65;4.30;;;;;;;;;;6152082;23;20008;-83
2023/05/28 06:30:58;;;;;;;10.40;5.07;;;;;;;;;;6152583;23;20010;-84
2023/05/28 06:33:24;;;;;;;9.00;4.90;;;;;;;;;;6125868;23;20013;-83
2023/05/28 06:35:50;;;;;;;8.98;4.60;;;;;;;;;;6151979;23;20045;-83
2023/05/28 06:38:16;;;;;;;8.60;4.20;;;;;;;;;;6126503;23;20445;-87
2023/05/28 06:40:42;;;;;;;7.93;4.10;;;;;;;;;;6126480;23;20024;-88
2023/05/28 06:43:08;;;;;;;9.18;4.45;;;;;;;;;;6126018;23;20020;-88
2023/05/28 06:45:35;;;;;;;7.43;4.63;;;;;;;;;;6126181;23;20014;-86
2023/05/28 06:48:01;;;;;;;10.32;4.80;;;;;;;;;;6129005;23;20005;-86
2023/05/28 06:50:29;;;;;;;9.48;5.35;;;;;;;;;;6126166;23;20009;-89
2023/05/28 06:55:34;;;;;;;6.90;4.18;;;;;;;;;;6179462;23;20103;-87
2023/05/28 06:58:20;;;;;;;7.25;4.40;;;;;;;;;;6154733;23;20083;-87
2023/05/28 07:01:17;;;;;;;;;;;;;;;;;;;;;
2023/05/28 07:03:44;;;;;;;10.80;4.90;;;;;;;;;;6179982;23;20507;-84
2023/05/28 07:06:10;;;;;;;8.10;4.38;;;;;;;;;;6154905;23;20100;-83
2023/05/28 07:08:56;;;;;;;7.75;4.80;;;;;;;;;;6153823;23;20425;-82
2023/05/28 07:11:31;;;;;;;12.00;4.43;;;;;;;;;;6181812;23;20029;-83
2023/05/28 07:13:57;;;;;;;8.85;4.22;;;;;;;;;;6154565;23;20055;-85
2023/05/28 07:16:24;;;;;;;8.75;4.85;;;;;;;;;;6155945;23;20005;-84
2023/05/28 07:18:50;;;;;;;10.23;4.93;;;;;;;;;;6155228;23;20064;-86
2023/05/28 07:21:16;;;;;;;8.52;4.43;;;;;;;;;;6156131;23;20009;-86
2023/05/28 07:23:42;;;;;;;8.18;4.32;;;;;;;;;;6151885;23;20325;-81
2023/05/28 07:26:08;;;;;;;8.02;4.30;;;;;;;;;;6154744;23;20091;-82
2023/05/28 07:28:34;;;;;;;8.07;4.32;;;;;;;;;;6154327;23;20437;-82
2023/05/28 08:01:52;;;;;;;7.68;3.78;;;;;;;;;;6149574;23;20052;-86
2023/05/28 08:04:57;;;;;;;;;;;;;;;;;;;;;
2023/05/28 08:10:40;;;;;;;10.75;4.32;;;;;;;;;;6131955;23;20039;-88
2023/05/28 08:34:56;;;;;;;10.90;4.25;;;;;;;;;;6099057;23;20517;-86
2023/05/28 08:37:22;;;;;;;8.50;4.72;;;;;;;;;;6120403;23;20029;-87
2023/05/28 08:42:51;;;;;;;12.40;4.63;;;;;;;;;;6100472;23;20745;-86
2023/05/28 08:45:21;;;;;;;7.07;4.00;;;;;;;;;;6119923;23;20033;-87
2023/05/28 08:47:48;;;;;;;8.13;4.18;;;;;;;;;;6121229;23;20010;-86
2023/05/28 09:09:16;;;;;;;14.27;5.30;;;;;;;;;;6167802;23;20059;-85
2023/05/28 09:15:03;;;;;;;8.50;4.35;;;;;;;;;;6177698;22;20036;-88
2023/05/28 09:18:45;;;;;;;;;;;;;;;;;;;;;
2023/05/28 09:31:55;;;;;;;8.30;4.05;;;;;;;;;;6177225;23;20047;-84
2023/05/28 09:34:25;;;;;;;11.77;4.28;;;;;;;;;;6183079;23;20420;-86
2023/05/28 09:37:01;;;;;;;8.02;4.55;;;;;;;;;;6184073;23;20005;-86
2023/05/28 09:39:53;;;;;;;9.45;5.20;;;;;;;;;;6182613;23;20036;-85
2023/05/28 09:47:52;;;;;;;8.60;4.57;;;;;;;;;;6182520;23;20028;-87
2023/05/28 14:16:21;;;;;;;8.07;3.63;;;;;;;;;;6195098;23;20427;-87
2023/05/28 14:21:25;;;;;;;12.18;4.80;;;;;;;;;;6180581;22;20119;-86
2023/05/28 14:23:51;;;;;;;6.90;3.80;;;;;;;;;;6156477;23;20013;-86
2023/05/28 14:28:51;;;;;;;11.13;4.75;;;;;;;;;;6152371;23;20029;-86
2023/05/28 14:31:29;;;;;;;7.72;4.20;;;;;;;;;;6149832;23;20237;-88
2023/05/28 16:06:39;;;;;;;10.35;4.40;;;;;;;;;;6190110;23;20112;-86
2023/05/28 16:40:07;;;;;;;9.15;3.33;;;;;;;;;;6170122;23;20040;-88
2023/05/28 17:13:35;;;;;;;7.50;3.53;;;;;;;;;;6188912;22;20038;-89
2023/05/28 17:16:18;;;;;;;;;;;;;;;;;;;;;
2023/05/28 17:18:44;;;;;;;13.13;3.80;;;;;;;;;;6181076;23;20084;-83
2023/05/28 17:26:33;;;;;;;8.75;3.75;;;;;;;;;;6200964;23;20071;-84
2023/05/28 17:32:25;;;;;;;;;;;;;;;;;;;;;
2023/05/28 17:34:53;;;;;;;9.07;5.63;;;;;;;;;;6212776;23;20116;-83
2023/05/28 17:37:26;;;;;;;9.02;5.32;;;;;;;;;;6184786;23;20070;-86
2023/05/28 17:39:54;;;;;;;11.13;6.35;;;;;;;;;;6184757;23;20768;-83
2023/05/28 17:42:23;;;;;;;9.80;4.88;;;;;;;;;;6185289;23;20008;-82
2023/05/28 17:44:51;;;;;;;8.60;4.45;;;;;;;;;;6184001;23;20028;-84
2023/05/28 17:47:18;;;;;;;10.05;4.80;;;;;;;;;;6210625;23;20314;-83
2023/05/28 17:49:46;;;;;;;9.15;4.68;;;;;;;;;;6212529;23;20133;-82
2023/05/28 17:52:14;;;;;;;9.95;4.25;;;;;;;;;;6186467;23;20394;-84
2023/05/28 17:54:42;;;;;;;11.88;4.55;;;;;;;;;;6211706;23;20008;-83
2023/05/28 17:57:08;;;;;;;21.23;15.70;;;;;;;;;;6212057;23;20016;-82
2023/05/28 17:59:34;;;;;;;13.63;6.40;;;;;;;;;;6212683;23;20004;-82
2023/05/28 18:02:00;;;;;;;12.00;4.75;;;;;;;;;;6174441;23;20049;-84
2023/05/28 18:04:27;;;;;;;7.63;4.32;;;;;;;;;;6213534;23;20116;-84
2023/05/28 18:07:13;;;;;;;9.30;4.75;;;;;;;;;;6212928;23;20036;-84
2023/05/28 18:19:29;;;;;;;10.00;5.05;;;;;;;;;;6152683;23;20016;-88
2023/05/28 18:34:10;;;;;;;8.63;4.72;;;;;;;;;;6206348;23;20107;-88
2023/05/28 18:52:43;;;;;;;11.27;5.15;;;;;;;;;;6000823;23;20051;-88
2023/05/28 18:55:55;;;;;;;9.05;4.82;;;;;;;;;;5979270;23;20019;-88
2023/05/28 19:26:20;;;;;;;;;;;;;;;;;;;;;
2023/05/28 19:32:19;;;;;;;;;;;;;;;;;;;;;
2023/05/28 19:59:17;;;;;;;12.52;6.40;;;;;;;;;;6149862;23;20043;-86
2023/05/28 20:01:49;;;;;;;12.20;6.15;;;;;;;;;;6211772;23;20009;-85
2023/05/28 20:04:17;;;;;;;12.38;5.10;;;;;;;;;;6184615;23;20012;-87
2023/05/28 20:06:43;;;;;;;13.20;5.18;;;;;;;;;;6184450;23;20019;-86
2023/05/28 20:09:11;;;;;;;9.48;4.43;;;;;;;;;;6185078;23;20005;-84
2023/05/28 20:15:07;;;;;;;11.32;5.22;;;;;;;;;;6193619;23;20031;-86
2023/05/28 20:17:38;;;;;;;10.93;5.28;;;;;;;;;;6174938;23;20023;-86
2023/05/28 20:25:29;;;;;;;8.05;4.43;;;;;;;;;;6174703;23;20025;-86
2023/05/28 20:28:16;;;;;;;12.65;4.70;;;;;;;;;;6153995;23;20013;-85
2023/05/28 20:30:43;;;;;;;9.43;4.68;;;;;;;;;;6163342;23;20020;-85
2023/05/28 20:36:13;;;;;;;11.23;5.05;;;;;;;;;;6162761;23;20033;-86
2023/05/28 20:38:40;;;;;;;10.15;5.15;;;;;;;;;;6117473;23;20013;-86
2023/05/28 20:41:08;;;;;;;10.25;5.32;;;;;;;;;;6118181;23;20032;-86
2023/05/28 20:43:35;;;;;;;9.27;4.90;;;;;;;;;;6118426;23;20014;-86
2023/05/28 20:46:02;;;;;;;9.35;4.85;;;;;;;;;;6117143;23;20026;-86
2023/05/28 20:48:28;;;;;;;8.40;5.00;;;;;;;;;;6118952;23;20053;-85
2023/05/28 20:50:54;;;;;;;10.93;4.63;;;;;;;;;;6118215;23;20616;-85
2023/05/28 20:53:21;;;;;;;11.25;4.43;;;;;;;;;;6118649;23;20017;-85
2023/05/28 20:55:47;;;;;;;9.75;4.40;;;;;;;;;;6118305;23;20022;-86
2023/05/28 20:58:13;;;;;;;10.20;5.47;;;;;;;;;;6118523;23;20129;-84
2023/05/28 21:00:41;;;;;;;10.85;5.22;;;;;;;;;;6119035;23;20049;-86
2023/05/28 21:09:32;;;;;;;10.18;4.72;;;;;;;;;;6060290;23;20018;-86
2023/05/28 21:12:17;;;;;;;11.57;5.82;;;;;;;;;;6059915;23;20059;-86
2023/05/28 21:18:07;;;;;;;10.30;4.68;;;;;;;;;;6056041;23;20011;-87
2023/05/28 21:20:49;;;;;;;;;;;;;;;;;;;;;
2023/05/28 21:26:04;;;;;;;12.68;5.07;;;;;;;;;;6179594;23;19939;-89
2023/05/28 22:34:25;;;;;;;;;;;;;;;;;;;;;
2023/05/28 23:31:50;;;;;;;;;;;;;;;;;;;;;
